createdAt,value
2022-08-07T00:01:43.952Z,42.71
2022-08-07T00:04:06.803Z,41.61
2022-08-07T00:06:51.048Z,43.17
2022-08-07T00:09:22.377Z,43.58
2022-08-07T00:11:55.351Z,44.15
2022-08-07T00:14:30.232Z,44.47
2022-08-07T00:17:07.597Z,42.24
2022-08-07T00:20:01.103Z,40.55
2022-08-07T00:22:24.637Z,42.90
2022-08-07T00:25:11.046Z,43.38
2022-08-07T00:27:53.485Z,45.46
2022-08-07T00:30:26.983Z,44.51
2022-08-07T00:32:56.889Z,47.28
2022-08-07T00:35:26.159Z,46.87
2022-08-07T00:37:54.516Z,46.06
2022-08-07T00:40:39.060Z,47.68
2022-08-07T00:43:12.857Z,42.37
2022-08-07T00:45:59.649Z,46.86
2022-08-07T00:48:31.761Z,46.33
2022-08-07T00:51:02.567Z,44.44
2022-08-07T00:53:39.010Z,46.86
2022-08-07T00:56:18.207Z,48.74
2022-08-07T00:58:46.826Z,48.67
2022-08-07T01:01:16.303Z,48.74
2022-08-07T01:03:56.181Z,49.54
2022-08-07T01:06:28.698Z,49.95
2022-08-07T01:08:58.549Z,49.57
2022-08-07T01:12:10.005Z,48.13
2022-08-07T01:14:21.084Z,49.07
2022-08-07T01:16:52.874Z,49.35
2022-08-07T01:19:22.738Z,50.93
2022-08-07T01:21:55.198Z,48.73
2022-08-07T01:24:29.432Z,51.02
2022-08-07T01:27:00.651Z,49.31
2022-08-07T01:29:33.771Z,49.90
2022-08-07T01:32:05.387Z,47.80
2022-08-07T01:34:47.415Z,51.82
2022-08-07T01:37:17.450Z,45.59
2022-08-07T01:39:48.487Z,51.64
2022-08-07T01:42:37.586Z,50.71
2022-08-07T01:45:17.809Z,51.39
2022-08-07T01:48:21.629Z,51.79
2022-08-07T01:50:38.241Z,52.19
2022-08-07T01:53:11.811Z,52.08
2022-08-07T01:55:56.847Z,49.79
2022-08-07T01:58:33.301Z,47.73
2022-08-07T02:01:09.900Z,50.99
2022-08-07T02:04:01.349Z,47.90
2022-08-07T02:06:32.686Z,51.67
2022-08-07T02:09:06.511Z,50.44
2022-08-07T02:12:02.654Z,50.64
2022-08-07T02:14:36.666Z,52.80
2022-08-07T02:17:16.593Z,51.43
2022-08-07T02:20:07.771Z,47.96
2022-08-07T02:22:41.457Z,48.54
2022-08-07T02:25:17.285Z,47.05
2022-08-07T02:27:56.065Z,47.00
2022-08-07T02:30:24.669Z,48.05
2022-08-07T02:33:03.842Z,47.54
2022-08-07T02:36:26.876Z,44.91
2022-08-07T02:38:35.693Z,46.19
2022-08-07T02:41:05.877Z,48.22
2022-08-07T02:43:38.919Z,46.38
2022-08-07T02:46:09.195Z,49.71
2022-08-07T02:48:39.104Z,47.57
2022-08-07T02:51:41.691Z,44.40
2022-08-07T02:54:09.605Z,48.90
2022-08-07T02:56:39.710Z,49.14
2022-08-07T02:59:11.067Z,50.78
2022-08-07T03:01:41.455Z,50.83
2022-08-07T03:04:16.300Z,51.35
2022-08-07T03:06:48.338Z,49.45
2022-08-07T03:09:43.896Z,51.72
2022-08-07T03:12:14.222Z,53.86
2022-08-07T03:14:56.332Z,51.15
2022-08-07T03:17:24.616Z,53.69
2022-08-07T03:19:56.290Z,51.83
2022-08-07T03:22:32.978Z,52.23
2022-08-07T03:25:01.324Z,47.70
2022-08-07T03:27:58.907Z,50.28
2022-08-07T03:30:25.221Z,53.71
2022-08-07T03:32:59.352Z,52.27
2022-08-07T03:35:43.407Z,52.07
2022-08-07T03:38:21.363Z,54.13
2022-08-07T03:41:01.349Z,51.59
2022-08-07T03:43:32.371Z,52.33
2022-08-07T03:46:04.082Z,53.11
2022-08-07T03:48:45.531Z,53.98
2022-08-07T03:51:46.780Z,50.61
2022-08-07T03:54:35.182Z,51.97
2022-08-07T03:57:07.469Z,49.56
2022-08-07T03:59:36.928Z,52.46
2022-08-07T04:02:14.812Z,52.80
2022-08-07T04:04:43.031Z,51.84
2022-08-07T04:07:17.409Z,48.66
2022-08-07T04:09:50.210Z,47.00
2022-08-07T04:12:28.961Z,51.14
2022-08-07T04:15:00.489Z,53.25
2022-08-07T04:18:56.261Z,50.48
2022-08-07T04:20:21.816Z,51.66
2022-08-07T04:22:53.748Z,41.21
2022-08-07T04:25:30.370Z,53.46
2022-08-07T04:28:05.109Z,54.50
2022-08-07T04:30:55.634Z,45.19
2022-08-07T04:33:28.379Z,52.20
2022-08-07T04:35:56.837Z,48.46
2022-08-07T04:38:28.775Z,49.84
2022-08-07T04:40:58.035Z,51.62
2022-08-07T04:44:09.907Z,51.23
2022-08-07T04:47:08.182Z,50.88
2022-08-07T04:50:03.924Z,51.09
2022-08-07T04:52:54.454Z,45.11
2022-08-07T04:58:11.029Z,50.42
2022-08-07T04:59:17.020Z,47.52
2022-08-07T05:01:43.214Z,48.56
2022-08-07T05:04:36.142Z,47.73
2022-08-07T05:07:36.510Z,43.62
2022-08-07T05:10:25.182Z,50.09
2022-08-07T05:13:10.024Z,50.42
2022-08-07T05:15:51.263Z,42.82
2022-08-07T05:18:23.896Z,42.40
2022-08-07T05:20:55.087Z,46.83
2022-08-07T05:23:39.091Z,41.90
2022-08-07T05:26:18.798Z,43.43
2022-08-07T05:28:57.365Z,46.51
2022-08-07T05:31:35.261Z,43.49
2022-08-07T05:34:11.032Z,50.33
2022-08-07T05:36:43.799Z,44.62
2022-08-07T05:40:13.746Z,44.31
2022-08-07T05:42:33.233Z,49.84
2022-08-07T05:45:26.344Z,47.18
2022-08-07T05:48:01.609Z,43.92
2022-08-07T05:50:32.010Z,51.38
2022-08-07T05:53:01.978Z,49.22
2022-08-07T05:56:03.869Z,46.96
2022-08-07T05:58:36.133Z,47.58
2022-08-07T06:01:10.492Z,47.60
2022-08-07T06:03:57.189Z,45.61
2022-08-07T06:06:34.619Z,44.34
2022-08-07T06:09:05.714Z,45.44
2022-08-07T06:11:39.213Z,49.85
2022-08-07T06:14:11.446Z,47.78
2022-08-07T06:16:45.224Z,48.76
2022-08-07T06:19:58.112Z,49.76
2022-08-07T06:22:15.858Z,49.03
2022-08-07T06:25:01.223Z,41.37
2022-08-07T06:27:44.415Z,44.68
2022-08-07T06:30:35.273Z,50.33
2022-08-07T06:33:15.731Z,47.29
2022-08-07T06:36:06.130Z,47.08
2022-08-07T06:38:33.330Z,50.07
2022-08-07T06:41:06.988Z,46.68
2022-08-07T06:43:40.091Z,50.17
2022-08-07T06:46:15.693Z,50.72
2022-08-07T06:49:00.839Z,51.14
2022-08-07T06:51:34.943Z,51.84
2022-08-07T06:55:28.312Z,49.09
2022-08-07T06:56:56.461Z,49.90
2022-08-07T07:00:14.843Z,51.68
2022-08-07T07:02:27.081Z,51.46
2022-08-07T07:05:14.920Z,46.12
2022-08-07T07:08:03.907Z,49.00
2022-08-07T07:10:35.625Z,45.72
2022-08-07T07:13:55.680Z,47.09
2022-08-07T07:16:19.691Z,45.95
2022-08-07T07:18:56.073Z,45.37
2022-08-07T07:21:40.106Z,44.68
2022-08-07T07:24:17.394Z,44.13
2022-08-07T07:26:51.718Z,43.35
2022-08-07T07:29:39.573Z,43.67
2022-08-07T07:32:14.062Z,43.62
2022-08-07T07:34:46.161Z,43.03
2022-08-07T07:37:56.150Z,41.14
2022-08-07T07:40:15.168Z,41.54
2022-08-07T07:42:51.391Z,40.56
2022-08-07T07:46:37.704Z,40.49
2022-08-07T07:48:34.796Z,40.03
2022-08-07T07:51:07.918Z,39.97
2022-08-07T07:53:51.368Z,40.17
2022-08-07T07:56:30.058Z,39.08
2022-08-07T07:59:08.170Z,39.00
2022-08-07T08:02:02.666Z,38.81
2022-08-07T08:04:28.735Z,39.21
2022-08-07T08:06:56.495Z,39.11
2022-08-07T08:09:29.846Z,38.40
2022-08-07T08:12:03.082Z,38.27
2022-08-07T08:14:36.548Z,37.99
2022-08-07T08:17:56.389Z,38.10
2022-08-07T08:20:17.570Z,39.34
2022-08-07T08:23:08.213Z,37.56
2022-08-07T08:25:56.982Z,38.32
2022-08-07T08:28:38.032Z,36.96
2022-08-07T08:31:14.792Z,37.38
2022-08-07T08:33:49.584Z,36.53
2022-08-07T08:36:30.022Z,35.76
2022-08-07T08:39:01.978Z,35.73
2022-08-07T08:41:58.386Z,36.14
2022-08-07T08:44:44.979Z,36.00
2022-08-07T08:47:52.651Z,35.54
2022-08-07T08:50:39.272Z,35.55
2022-08-07T08:53:26.450Z,34.28
2022-08-07T08:56:01.145Z,33.97
2022-08-07T08:58:43.842Z,32.67
2022-08-07T09:01:18.506Z,32.28
2022-08-07T09:04:03.991Z,32.43
2022-08-07T09:07:02.341Z,31.64
2022-08-07T09:10:00.927Z,31.85
2022-08-07T09:12:52.969Z,30.40
2022-08-07T09:16:22.376Z,30.25
2022-08-07T09:18:32.618Z,31.37
2022-08-07T09:21:58.320Z,31.29
2022-08-07T09:24:55.522Z,29.81
2022-08-07T09:27:31.113Z,30.03
2022-08-07T09:30:09.385Z,30.43
2022-08-07T09:32:51.098Z,30.15
2022-08-07T09:36:02.675Z,30.04
2022-08-07T09:38:57.159Z,29.80
2022-08-07T09:42:03.023Z,29.89
2022-08-07T09:47:26.146Z,30.15
2022-08-07T09:48:01.140Z,27.90
2022-08-07T09:50:51.439Z,28.85
2022-08-07T09:53:22.452Z,27.71
2022-08-07T09:56:19.926Z,28.16
2022-08-07T09:59:14.977Z,28.70
2022-08-07T10:02:40.625Z,28.45
2022-08-07T10:06:00.067Z,27.51
2022-08-07T10:08:51.338Z,27.44
2022-08-07T10:12:02.013Z,28.21
2022-08-07T10:14:35.266Z,28.10
2022-08-07T10:17:21.781Z,27.79
2022-08-07T10:20:14.826Z,27.35
2022-08-07T10:23:01.973Z,27.66
2022-08-07T10:26:00.569Z,28.20
2022-08-07T10:28:37.395Z,26.60
2022-08-07T10:31:49.974Z,27.10
2022-08-07T10:34:42.876Z,26.71
2022-08-07T10:37:59.960Z,26.44
2022-08-07T10:40:24.642Z,25.53
2022-08-07T10:43:36.001Z,25.99
2022-08-07T10:46:19.501Z,24.48
2022-08-07T10:49:10.240Z,24.10
2022-08-07T10:52:02.234Z,24.60
2022-08-07T10:54:53.543Z,25.24
2022-08-07T10:58:11.177Z,24.13
2022-08-07T11:00:56.457Z,24.57
2022-08-07T11:03:37.867Z,25.24
2022-08-07T11:06:26.670Z,24.57
2022-08-07T11:09:02.230Z,24.60
2022-08-07T11:11:35.876Z,25.08
2022-08-07T11:14:57.126Z,24.38
2022-08-07T11:17:43.607Z,23.82
2022-08-07T11:20:48.262Z,23.81
2022-08-07T11:24:00.343Z,24.17
2022-08-07T11:28:00.924Z,24.00
2022-08-07T11:30:18.373Z,23.25
2022-08-07T11:32:46.088Z,22.85
2022-08-07T11:36:10.987Z,23.60
2022-08-07T11:39:19.570Z,23.20
2022-08-07T11:42:03.200Z,23.00
2022-08-07T11:45:35.271Z,23.03
2022-08-07T11:49:27.784Z,22.92
2022-08-07T11:52:35.735Z,22.83
2022-08-07T11:55:19.025Z,21.98
2022-08-07T11:58:57.073Z,22.87
2022-08-07T12:02:30.143Z,21.46
2022-08-07T12:05:53.988Z,21.32
2022-08-07T12:09:23.630Z,20.53
2022-08-07T12:12:47.821Z,20.17
2022-08-07T12:15:46.171Z,19.42
2022-08-07T12:18:29.647Z,18.47
2022-08-07T12:21:55.648Z,17.59
2022-08-07T12:25:07.778Z,17.89
2022-08-07T12:28:31.586Z,16.15
2022-08-07T12:32:03.851Z,16.47
2022-08-07T12:35:29.293Z,15.81
2022-08-07T12:38:59.947Z,15.46
2022-08-07T12:41:42.879Z,15.72
2022-08-07T12:44:18.330Z,14.46
2022-08-07T12:47:45.049Z,14.46
2022-08-07T12:50:39.509Z,15.00
2022-08-07T12:53:28.476Z,15.53
2022-08-07T12:56:39.550Z,15.47
2022-08-07T12:59:08.657Z,14.28
2022-08-07T13:02:44.032Z,13.18
2022-08-07T13:06:04.873Z,12.82
2022-08-07T13:10:20.115Z,13.33
2022-08-07T13:13:06.129Z,13.25
2022-08-07T13:16:29.458Z,14.37
2022-08-07T13:19:53.280Z,13.37
2022-08-07T13:24:01.138Z,13.61
2022-08-07T13:26:15.995Z,13.42
2022-08-07T13:28:58.891Z,11.88
2022-08-07T13:31:45.913Z,11.38
2022-08-07T13:34:48.595Z,11.77
2022-08-07T13:37:58.496Z,12.62
2022-08-07T13:40:42.239Z,11.75
2022-08-07T13:43:16.051Z,11.31
2022-08-07T13:46:12.319Z,12.51
2022-08-07T13:48:39.130Z,13.71
2022-08-07T13:51:27.165Z,13.74
2022-08-07T13:54:01.937Z,13.82
2022-08-07T13:56:36.238Z,12.67
2022-08-07T13:59:25.685Z,12.52
2022-08-07T14:02:10.310Z,13.03
2022-08-07T14:04:48.924Z,12.10
2022-08-07T14:07:27.303Z,11.46
2022-08-07T14:10:12.451Z,12.29
2022-08-07T14:12:55.681Z,12.11
2022-08-07T14:15:42.245Z,11.35
2022-08-07T14:18:30.219Z,10.26
2022-08-07T14:22:02.519Z,10.15
2022-08-07T14:24:28.385Z,9.94
2022-08-07T14:28:09.385Z,9.97
2022-08-07T14:30:08.146Z,9.57
2022-08-07T14:32:47.820Z,9.60
2022-08-07T14:35:44.914Z,10.38
2022-08-07T14:38:26.231Z,10.72
2022-08-07T14:41:33.868Z,10.32
2022-08-07T14:45:22.502Z,12.01
2022-08-07T14:48:48.396Z,13.44
2022-08-07T14:52:13.749Z,12.36
2022-08-07T14:54:44.778Z,12.24
2022-08-07T14:58:09.266Z,12.53
2022-08-07T15:00:52.925Z,13.57
2022-08-07T15:04:16.941Z,12.79
2022-08-07T15:07:51.354Z,12.33
2022-08-07T15:10:26.943Z,12.92
2022-08-07T15:13:11.346Z,13.03
2022-08-07T15:18:45.390Z,11.79
2022-08-07T15:21:45.035Z,12.09
2022-08-07T15:27:23.040Z,12.45
2022-08-07T15:33:42.674Z,12.70
2022-08-07T15:36:10.802Z,12.92
2022-08-07T15:45:55.467Z,12.59
2022-08-07T15:48:31.823Z,13.58
2022-08-07T15:51:08.574Z,13.01
2022-08-07T15:53:53.313Z,13.42
2022-08-07T15:56:37.478Z,13.94
2022-08-07T15:59:16.277Z,13.73
2022-08-07T16:02:02.582Z,12.66
2022-08-07T16:04:33.657Z,11.95
2022-08-07T16:08:33.089Z,12.19
2022-08-07T16:10:22.099Z,13.13
2022-08-07T16:13:17.649Z,13.62
2022-08-07T16:16:48.493Z,14.02
2022-08-07T16:20:34.054Z,17.10
2022-08-07T16:24:09.104Z,18.80
2022-08-07T16:27:18.083Z,18.82
2022-08-07T16:30:30.511Z,20.06
2022-08-07T16:34:02.320Z,18.98
2022-08-07T16:36:20.059Z,19.03
2022-08-07T16:39:05.947Z,19.45
2022-08-07T16:42:12.797Z,20.33
2022-08-07T16:45:15.202Z,20.75
2022-08-07T16:48:37.686Z,21.32
2022-08-07T16:51:53.980Z,22.10
2022-08-07T16:54:54.874Z,20.57
2022-08-07T16:58:01.686Z,20.34
2022-08-07T17:00:49.479Z,22.56
2022-08-07T17:03:58.105Z,22.02
2022-08-07T17:07:02.912Z,21.28
2022-08-07T17:10:07.153Z,20.81
2022-08-07T17:12:44.293Z,22.07
2022-08-07T17:15:15.605Z,21.94
2022-08-07T17:17:46.921Z,21.19
2022-08-07T17:20:35.482Z,21.72
2022-08-07T17:23:22.775Z,21.28
2022-08-07T17:26:23.632Z,21.49
2022-08-07T17:28:58.626Z,22.17
2022-08-07T17:31:44.166Z,21.97
2022-08-07T17:34:40.907Z,22.39
2022-08-07T17:38:09.595Z,22.30
2022-08-07T17:42:00.585Z,23.30
2022-08-07T17:44:50.390Z,22.53
2022-08-07T17:48:31.127Z,22.80
2022-08-07T17:52:01.191Z,22.04
2022-08-07T17:55:55.689Z,23.01
2022-08-07T17:58:30.398Z,23.62
2022-08-07T18:01:56.776Z,23.13
2022-08-07T18:05:25.794Z,22.17
2022-08-07T18:08:32.697Z,23.13
2022-08-07T18:12:16.110Z,22.99
2022-08-07T18:15:44.653Z,22.90
2022-08-07T18:21:06.352Z,23.36
2022-08-07T18:22:28.952Z,23.41
2022-08-07T18:25:23.791Z,24.60
2022-08-07T18:28:34.239Z,23.84
2022-08-07T18:31:18.480Z,24.06
2022-08-07T18:34:35.878Z,23.31
2022-08-07T18:38:58.724Z,23.03
2022-08-07T18:41:16.994Z,23.90
2022-08-07T18:44:09.050Z,23.99
2022-08-07T18:47:22.652Z,23.22
2022-08-07T18:50:39.128Z,24.55
2022-08-07T18:53:39.252Z,24.55
2022-08-07T18:56:13.290Z,25.76
2022-08-07T18:58:55.317Z,24.13
2022-08-07T19:02:34.196Z,23.91
2022-08-07T19:04:57.907Z,23.52
2022-08-07T19:07:51.697Z,24.91
2022-08-07T19:10:32.001Z,25.67
2022-08-07T19:13:33.581Z,25.74
2022-08-07T19:17:04.706Z,24.83
2022-08-07T19:19:46.060Z,24.94
2022-08-07T19:22:53.975Z,25.35
2022-08-07T19:26:23.075Z,25.95
2022-08-07T19:31:02.941Z,25.63
2022-08-07T19:32:18.670Z,26.03
2022-08-07T19:34:55.225Z,25.47
2022-08-07T19:37:24.270Z,27.16
2022-08-07T19:40:14.196Z,25.27
2022-08-07T19:42:43.152Z,26.01
2022-08-07T19:46:10.075Z,25.80
2022-08-07T19:49:57.111Z,26.21
2022-08-07T19:54:32.449Z,26.64
2022-08-07T19:57:50.884Z,26.36
2022-08-07T19:59:54.428Z,26.26
2022-08-07T20:03:34.751Z,26.24
2022-08-07T20:06:06.164Z,27.38
2022-08-07T20:10:35.527Z,26.43
2022-08-07T20:12:34.406Z,27.11
2022-08-07T20:15:58.866Z,27.21
2022-08-07T20:19:25.033Z,28.31
2022-08-07T20:22:00.267Z,27.49
2022-08-07T20:25:18.371Z,27.64
2022-08-07T20:27:58.545Z,27.62
2022-08-07T20:30:36.511Z,28.00
2022-08-07T20:33:08.909Z,28.19
2022-08-07T20:35:54.394Z,28.17
2022-08-07T20:38:29.450Z,28.66
2022-08-07T20:41:03.895Z,29.07
2022-08-07T20:43:35.486Z,29.10
2022-08-07T20:46:28.666Z,30.02
2022-08-07T20:49:58.423Z,29.92
2022-08-07T20:51:50.324Z,29.97
2022-08-07T20:54:29.615Z,30.86
2022-08-07T20:57:05.122Z,31.47
2022-08-07T21:00:05.036Z,32.50
2022-08-07T21:02:54.521Z,31.89
2022-08-07T21:05:51.298Z,32.63
2022-08-07T21:09:01.067Z,32.86
2022-08-07T21:11:49.978Z,32.47
2022-08-07T21:14:32.135Z,32.49
2022-08-07T21:18:04.070Z,33.08
2022-08-07T21:20:26.862Z,33.02
2022-08-07T21:23:08.656Z,33.83
2022-08-07T21:26:12.225Z,34.76
2022-08-07T21:28:59.949Z,34.49
2022-08-07T21:32:44.178Z,34.57
2022-08-07T21:35:01.031Z,34.76
2022-08-07T21:37:57.982Z,35.95
2022-08-07T21:40:47.522Z,34.44
2022-08-07T21:43:25.482Z,35.82
2022-08-07T21:46:40.162Z,34.92
2022-08-07T21:50:02.005Z,36.14
2022-08-07T21:52:44.506Z,36.00
2022-08-07T21:56:35.839Z,35.31
2022-08-07T22:00:04.970Z,36.64
2022-08-07T22:03:31.452Z,37.73
2022-08-07T22:06:55.854Z,38.75
2022-08-07T22:09:31.520Z,39.76
2022-08-07T22:12:15.330Z,39.24
2022-08-07T22:16:42.301Z,39.13
2022-08-07T22:19:30.011Z,39.52
2022-08-07T22:22:36.724Z,39.33
2022-08-07T22:26:05.916Z,37.99
2022-08-07T22:29:37.838Z,38.71
2022-08-07T22:33:11.988Z,38.66
2022-08-07T22:36:38.782Z,40.07
2022-08-07T22:40:05.160Z,40.22
2022-08-07T22:43:31.480Z,40.50
2022-08-07T22:47:06.470Z,40.15
2022-08-07T22:50:33.640Z,40.21
2022-08-07T22:54:07.050Z,39.63
2022-08-07T22:56:48.740Z,39.95
2022-08-07T22:59:34.568Z,39.81
2022-08-07T23:02:17.400Z,40.96
2022-08-07T23:06:15.277Z,39.61
2022-08-07T23:08:46.208Z,39.48
2022-08-07T23:11:44.161Z,41.36
2022-08-07T23:14:32.548Z,41.98
2022-08-07T23:17:37.858Z,42.96
2022-08-07T23:20:51.406Z,41.41
2022-08-07T23:24:05.740Z,39.80
2022-08-07T23:27:12.614Z,34.93
2022-08-07T23:30:38.838Z,38.35
2022-08-07T23:34:36.142Z,40.15
2022-08-07T23:37:19.085Z,41.63
2022-08-07T23:39:56.677Z,41.54
2022-08-07T23:43:07.646Z,42.12
2022-08-07T23:46:23.931Z,40.97
2022-08-07T23:49:49.854Z,40.07
2022-08-07T23:53:11.795Z,38.22
2022-08-07T23:55:52.026Z,41.64
2022-08-07T23:58:56.174Z,41.31
